createdAt,value
2022-08-17T00:00:34.461Z,3.37
2022-08-17T00:03:10.000Z,3.10
2022-08-17T00:05:41.400Z,3.10
2022-08-17T00:08:10.036Z,3.13
2022-08-17T00:10:38.485Z,2.70
2022-08-17T00:13:08.732Z,3.30
2022-08-17T00:15:38.170Z,2.70
2022-08-17T00:19:01.244Z,3.43
2022-08-17T00:20:54.298Z,3.30
2022-08-17T00:23:23.028Z,2.87
2022-08-17T00:25:51.009Z,3.20
2022-08-17T00:28:20.940Z,3.40
2022-08-17T00:30:53.540Z,2.90
2022-08-17T00:33:24.560Z,2.83
2022-08-17T00:35:53.484Z,2.77
2022-08-17T00:38:21.882Z,3.20
2022-08-17T00:40:52.306Z,3.27
2022-08-17T00:43:31.985Z,3.00
2022-08-17T00:46:03.780Z,3.00
2022-08-17T00:48:32.763Z,2.63
2022-08-17T00:51:08.155Z,3.07
2022-08-17T00:53:40.171Z,3.10
2022-08-17T00:56:12.857Z,3.30
2022-08-17T00:58:41.764Z,3.43
2022-08-17T01:01:13.349Z,2.70
2022-08-17T01:03:51.266Z,3.30
2022-08-17T01:06:19.293Z,3.30
2022-08-17T01:08:47.260Z,2.83
2022-08-17T01:11:15.319Z,3.37
2022-08-17T01:13:45.342Z,2.97
2022-08-17T01:16:17.154Z,3.77
2022-08-17T01:18:47.087Z,2.87
2022-08-17T01:21:23.278Z,2.87
2022-08-17T01:23:52.502Z,2.83
2022-08-17T01:26:21.004Z,3.07
2022-08-17T01:28:54.242Z,2.27
2022-08-17T01:31:24.691Z,3.23
2022-08-17T01:33:53.212Z,2.87
2022-08-17T01:36:21.319Z,2.93
2022-08-17T01:38:49.062Z,3.43
2022-08-17T01:41:18.449Z,2.73
2022-08-17T01:43:49.059Z,3.00
2022-08-17T01:46:22.365Z,3.07
2022-08-17T01:48:51.351Z,3.20
2022-08-17T01:51:19.778Z,2.83
2022-08-17T01:53:52.501Z,3.37
2022-08-17T01:56:24.352Z,2.53
2022-08-17T01:58:52.763Z,3.43
2022-08-17T02:01:26.410Z,3.10
2022-08-17T02:04:00.986Z,3.37
2022-08-17T02:06:44.956Z,3.53
2022-08-17T02:09:19.790Z,3.23
2022-08-17T02:11:52.790Z,3.10
2022-08-17T02:14:22.103Z,3.27
2022-08-17T02:16:50.365Z,3.20
2022-08-17T02:19:18.949Z,3.20
2022-08-17T02:21:49.362Z,3.40
2022-08-17T02:24:59.440Z,2.97
2022-08-17T02:27:12.457Z,3.43
2022-08-17T02:29:40.515Z,3.60
2022-08-17T02:32:25.344Z,3.73
2022-08-17T02:34:56.762Z,3.60
2022-08-17T02:37:25.004Z,3.10
2022-08-17T02:39:53.250Z,3.67
2022-08-17T02:42:26.128Z,3.33
2022-08-17T02:44:54.021Z,3.00
2022-08-17T02:47:21.826Z,3.30
2022-08-17T02:49:54.486Z,4.30
2022-08-17T02:52:42.496Z,2.97
2022-08-17T02:55:14.249Z,2.97
2022-08-17T02:57:43.824Z,3.10
2022-08-17T03:00:19.581Z,2.97
2022-08-17T03:02:47.966Z,2.80
2022-08-17T03:05:18.964Z,3.13
2022-08-17T03:07:46.828Z,3.20
2022-08-17T03:10:15.422Z,2.67
2022-08-17T03:12:45.659Z,3.37
2022-08-17T03:15:16.622Z,2.87
2022-08-17T03:17:44.887Z,3.10
2022-08-17T03:20:14.280Z,3.27
2022-08-17T03:22:53.045Z,3.00
2022-08-17T03:25:24.035Z,3.70
2022-08-17T03:27:53.665Z,2.70
2022-08-17T03:30:22.458Z,3.20
2022-08-17T03:32:52.098Z,2.97
2022-08-17T03:35:23.467Z,3.00
2022-08-17T03:38:00.109Z,2.80
2022-08-17T03:40:58.877Z,4.13
2022-08-17T03:43:23.983Z,3.30
2022-08-17T03:46:26.917Z,2.70
2022-08-17T03:49:14.913Z,3.17
2022-08-17T03:52:00.356Z,3.67
2022-08-17T03:54:45.708Z,3.50
2022-08-17T03:57:14.131Z,3.17
2022-08-17T03:59:43.360Z,3.37
2022-08-17T04:02:17.398Z,3.57
2022-08-17T04:04:45.667Z,2.97
2022-08-17T04:07:13.682Z,3.10
2022-08-17T04:09:42.840Z,3.10
2022-08-17T04:12:10.733Z,3.07
2022-08-17T04:14:51.487Z,2.90
2022-08-17T04:17:24.442Z,3.73
2022-08-17T04:19:52.907Z,2.90
2022-08-17T04:22:33.039Z,2.80
2022-08-17T04:25:05.132Z,3.00
2022-08-17T04:27:33.081Z,2.80
2022-08-17T04:30:01.814Z,2.77
2022-08-17T04:33:02.298Z,2.77
2022-08-17T04:35:20.937Z,2.80
2022-08-17T04:37:48.912Z,3.03
2022-08-17T04:40:35.444Z,3.20
2022-08-17T04:43:05.460Z,2.43
2022-08-17T04:45:33.396Z,2.80
2022-08-17T04:48:03.220Z,3.10
2022-08-17T04:50:31.068Z,2.67
2022-08-17T04:52:59.321Z,3.13
2022-08-17T04:55:27.475Z,2.83
2022-08-17T04:57:55.340Z,2.67
2022-08-17T05:00:25.654Z,2.90
2022-08-17T05:02:55.611Z,3.23
2022-08-17T05:05:27.889Z,2.77
2022-08-17T05:07:57.452Z,2.67
2022-08-17T05:10:27.328Z,2.40
2022-08-17T05:13:00.160Z,2.77
2022-08-17T05:15:33.211Z,2.40
2022-08-17T05:18:04.012Z,2.27
2022-08-17T05:20:33.940Z,3.43
2022-08-17T05:23:07.008Z,2.33
2022-08-17T05:25:41.245Z,2.80
2022-08-17T05:28:10.761Z,2.43
2022-08-17T05:30:40.225Z,2.60
2022-08-17T05:33:11.777Z,2.80
2022-08-17T05:35:44.313Z,1.80
2022-08-17T05:38:12.443Z,2.70
2022-08-17T05:40:41.348Z,2.20
2022-08-17T05:43:11.240Z,2.30
2022-08-17T05:45:55.373Z,2.13
2022-08-17T05:48:35.281Z,2.33
2022-08-17T05:51:22.033Z,1.63
2022-08-17T05:53:59.437Z,2.03
2022-08-17T05:56:46.529Z,1.80
2022-08-17T05:59:24.856Z,1.93
2022-08-17T06:02:02.979Z,2.03
2022-08-17T06:04:42.861Z,2.20
2022-08-17T06:07:19.502Z,1.80
2022-08-17T06:09:52.599Z,1.67
2022-08-17T06:12:35.169Z,2.70
2022-08-17T06:15:17.107Z,2.53
2022-08-17T06:17:45.272Z,2.10
2022-08-17T06:20:16.103Z,2.30
2022-08-17T06:22:49.164Z,2.27
2022-08-17T06:25:20.456Z,2.13
2022-08-17T06:28:00.140Z,2.43
2022-08-17T06:30:57.447Z,2.10
2022-08-17T06:33:23.731Z,2.10
2022-08-17T06:36:02.626Z,2.00
2022-08-17T06:38:49.853Z,1.80
2022-08-17T06:41:24.257Z,1.73
2022-08-17T06:44:10.901Z,1.60
2022-08-17T06:46:42.388Z,2.03
2022-08-17T06:49:18.214Z,2.50
2022-08-17T06:51:51.693Z,1.73
2022-08-17T06:54:31.129Z,2.30
2022-08-17T06:57:06.620Z,1.80
2022-08-17T06:59:55.755Z,2.13
2022-08-17T07:03:02.434Z,2.03
2022-08-17T07:05:29.229Z,2.00
2022-08-17T07:08:03.015Z,1.90
2022-08-17T07:10:37.500Z,2.90
2022-08-17T07:13:22.549Z,2.97
2022-08-17T07:15:56.493Z,2.50
2022-08-17T07:18:27.913Z,2.60
2022-08-17T07:21:00.816Z,3.08
2022-08-17T07:23:40.073Z,2.95
2022-08-17T07:26:13.156Z,2.97
2022-08-17T07:28:41.217Z,3.00
2022-08-17T07:31:13.252Z,3.17
2022-08-17T07:33:41.306Z,3.55
2022-08-17T07:36:29.823Z,3.15
2022-08-17T07:38:59.083Z,3.08
2022-08-17T07:41:53.104Z,3.92
2022-08-17T07:44:17.782Z,3.45
2022-08-17T07:47:08.804Z,3.67
2022-08-17T07:49:39.253Z,3.30
2022-08-17T07:52:24.273Z,3.33
2022-08-17T07:54:57.578Z,3.70
2022-08-17T07:57:32.815Z,3.47
2022-08-17T08:00:27.281Z,3.97
2022-08-17T08:03:26.196Z,3.03
2022-08-17T08:06:00.148Z,3.90
2022-08-17T08:08:31.966Z,3.72
2022-08-17T08:11:04.117Z,3.70
2022-08-17T08:13:33.610Z,3.67
2022-08-17T08:16:23.821Z,3.67
2022-08-17T08:18:56.886Z,4.20
2022-08-17T08:21:34.312Z,3.67
2022-08-17T08:24:20.649Z,3.40
2022-08-17T08:26:57.615Z,3.97
2022-08-17T08:29:37.885Z,3.92
2022-08-17T08:32:12.764Z,3.97
2022-08-17T08:35:01.113Z,3.30
2022-08-17T08:37:43.541Z,3.35
2022-08-17T08:40:29.787Z,3.28
2022-08-17T08:43:06.944Z,3.92
2022-08-17T08:45:44.484Z,3.70
2022-08-17T08:48:53.226Z,4.32
2022-08-17T08:51:22.130Z,3.42
2022-08-17T08:53:58.549Z,4.45
2022-08-17T08:56:35.136Z,4.38
2022-08-17T08:59:08.687Z,4.57
2022-08-17T09:01:46.034Z,4.38
2022-08-17T09:04:44.906Z,4.13
2022-08-17T09:07:33.590Z,4.05
2022-08-17T09:10:09.467Z,4.20
2022-08-17T09:12:47.527Z,4.13
2022-08-17T09:15:20.813Z,3.97
2022-08-17T09:18:21.288Z,4.57
2022-08-17T09:20:50.639Z,4.23
2022-08-17T09:23:30.888Z,4.57
2022-08-17T09:26:01.726Z,4.43
2022-08-17T09:28:35.004Z,4.37
2022-08-17T09:31:08.144Z,4.20
2022-08-17T09:33:43.587Z,4.33
2022-08-17T09:36:19.037Z,3.90
2022-08-17T09:38:58.289Z,4.23
2022-08-17T09:41:33.204Z,4.07
2022-08-17T09:44:09.533Z,3.90
2022-08-17T09:46:54.481Z,3.90
2022-08-17T09:49:31.785Z,4.30
2022-08-17T09:52:04.246Z,4.13
2022-08-17T09:54:39.049Z,4.63
2022-08-17T09:57:31.341Z,4.47
2022-08-17T10:00:13.713Z,4.70
2022-08-17T10:03:00.679Z,4.07
2022-08-17T10:05:37.439Z,4.47
2022-08-17T10:08:12.317Z,4.30
2022-08-17T10:10:52.480Z,4.47
2022-08-17T10:13:35.330Z,4.40
2022-08-17T10:16:08.729Z,4.87
2022-08-17T10:18:51.758Z,4.70
2022-08-17T10:21:39.172Z,5.00
2022-08-17T10:24:28.548Z,4.57
2022-08-17T10:27:01.077Z,4.50
2022-08-17T10:29:47.408Z,4.87
2022-08-17T10:32:26.651Z,4.80
2022-08-17T10:35:03.667Z,5.00
2022-08-17T10:37:50.943Z,4.87
2022-08-17T10:40:35.283Z,5.33
2022-08-17T10:43:14.528Z,5.43
2022-08-17T10:46:17.105Z,5.20
2022-08-17T10:48:40.544Z,6.57
2022-08-17T10:51:12.469Z,4.57
2022-08-17T10:53:55.717Z,5.27
2022-08-17T10:56:45.556Z,5.73
2022-08-17T10:59:51.485Z,6.10
2022-08-17T11:02:26.146Z,4.83
2022-08-17T11:05:10.276Z,6.17
2022-08-17T11:07:58.726Z,5.63
2022-08-17T11:10:49.919Z,6.07
2022-08-17T11:13:33.066Z,6.23
2022-08-17T11:16:18.428Z,6.90
2022-08-17T11:19:18.357Z,5.43
2022-08-17T11:22:33.564Z,5.72
2022-08-17T11:25:15.437Z,6.07
2022-08-17T11:27:45.067Z,5.53
2022-08-17T11:30:16.018Z,5.50
2022-08-17T11:32:54.773Z,5.60
2022-08-17T11:35:35.061Z,5.72
2022-08-17T11:38:17.582Z,6.15
2022-08-17T11:41:14.171Z,6.15
2022-08-17T11:44:19.610Z,6.13
2022-08-17T11:47:20.445Z,5.78
2022-08-17T11:50:27.669Z,7.10
2022-08-17T11:52:55.953Z,6.07
2022-08-17T11:56:04.590Z,6.30
2022-08-17T11:58:39.425Z,6.45
2022-08-17T12:01:09.684Z,6.38
2022-08-17T12:03:55.309Z,6.85
2022-08-17T12:06:49.246Z,6.13
2022-08-17T12:09:20.791Z,7.38
2022-08-17T12:11:55.101Z,6.40
2022-08-17T12:15:09.003Z,6.78
2022-08-17T12:17:40.971Z,7.35
2022-08-17T12:20:21.435Z,7.75
2022-08-17T12:22:57.546Z,6.68
2022-08-17T12:25:32.956Z,6.60
2022-08-17T12:28:06.825Z,6.55
2022-08-17T12:30:37.304Z,7.18
2022-08-17T12:33:13.290Z,7.97
2022-08-17T12:35:59.586Z,7.55
2022-08-17T12:38:32.933Z,7.60
2022-08-17T12:41:23.271Z,6.68
2022-08-17T12:43:58.539Z,6.90
2022-08-17T12:46:26.484Z,8.32
2022-08-17T12:48:58.971Z,7.40
2022-08-17T12:51:29.261Z,8.20
2022-08-17T12:53:58.698Z,8.75
2022-08-17T12:56:26.668Z,7.60
2022-08-17T12:58:55.508Z,8.02
2022-08-17T13:01:24.973Z,7.38
2022-08-17T13:03:59.678Z,8.27
2022-08-17T13:06:32.174Z,8.70
2022-08-17T13:09:12.253Z,8.80
2022-08-17T13:11:48.757Z,8.15
2022-08-17T13:14:18.403Z,7.43
2022-08-17T13:16:52.266Z,7.90
2022-08-17T13:19:40.568Z,7.53
2022-08-17T13:22:12.338Z,7.93
2022-08-17T13:24:54.417Z,8.75
2022-08-17T13:27:24.990Z,8.27
2022-08-17T13:29:55.774Z,9.35
2022-08-17T13:32:35.791Z,8.85
2022-08-17T13:35:35.389Z,8.68
2022-08-17T13:38:10.325Z,8.73
2022-08-17T13:40:50.662Z,8.38
2022-08-17T13:43:44.498Z,9.60
2022-08-17T13:46:20.260Z,9.18
2022-08-17T13:48:59.312Z,10.05
2022-08-17T13:51:31.215Z,8.90
2022-08-17T13:54:05.919Z,9.80
2022-08-17T13:56:54.259Z,8.75
2022-08-17T13:59:53.422Z,8.30
2022-08-17T14:02:25.941Z,8.48
2022-08-17T14:04:56.684Z,8.73
2022-08-17T14:07:28.864Z,8.45
2022-08-17T14:10:00.239Z,9.80
2022-08-17T14:12:32.809Z,8.98
2022-08-17T14:15:01.106Z,10.30
2022-08-17T14:17:36.375Z,9.65
2022-08-17T14:20:07.210Z,9.20
2022-08-17T14:22:37.635Z,10.20
2022-08-17T14:25:08.657Z,9.93
2022-08-17T14:27:52.005Z,10.55
2022-08-17T14:30:23.026Z,10.65
2022-08-17T14:32:51.867Z,10.57
2022-08-17T14:35:23.086Z,10.75
2022-08-17T14:37:51.606Z,10.15
2022-08-17T14:40:22.541Z,10.10
2022-08-17T14:42:52.972Z,10.75
2022-08-17T14:45:31.752Z,11.10
2022-08-17T14:48:01.951Z,11.25
2022-08-17T14:50:29.809Z,11.65
2022-08-17T14:53:01.580Z,9.65
2022-08-17T14:55:29.633Z,11.40
2022-08-17T14:57:58.992Z,11.38
2022-08-17T15:00:27.165Z,10.43
2022-08-17T15:02:57.866Z,11.27
2022-08-17T15:05:31.242Z,11.80
2022-08-17T15:07:59.437Z,11.45
2022-08-17T15:10:27.779Z,11.52
2022-08-17T15:12:56.097Z,11.40
2022-08-17T15:15:25.647Z,12.63
2022-08-17T15:17:53.732Z,11.35
2022-08-17T15:20:24.636Z,11.07
2022-08-17T15:22:54.986Z,11.88
2022-08-17T15:25:23.403Z,11.52
2022-08-17T15:27:51.454Z,12.48
2022-08-17T15:30:20.389Z,11.50
2022-08-17T15:32:55.258Z,12.18
2022-08-17T15:35:27.737Z,12.13
2022-08-17T15:37:57.306Z,11.77
2022-08-17T15:40:25.197Z,12.20
2022-08-17T15:42:53.125Z,10.82
2022-08-17T15:45:26.268Z,10.30
2022-08-17T15:47:55.559Z,11.30
2022-08-17T15:50:23.386Z,11.23
2022-08-17T15:52:57.627Z,10.75
2022-08-17T15:55:25.822Z,9.48
2022-08-17T15:57:53.948Z,8.73
2022-08-17T16:00:23.941Z,9.00
2022-08-17T16:03:20.362Z,9.48
2022-08-17T16:05:41.872Z,8.50
2022-08-17T16:08:10.917Z,7.80
2022-08-17T16:10:38.966Z,8.27
2022-08-17T16:13:17.989Z,8.55
2022-08-17T16:15:56.578Z,10.48
2022-08-17T16:18:28.220Z,9.15
2022-08-17T16:20:57.429Z,9.75
2022-08-17T16:23:25.592Z,8.27
2022-08-17T16:25:54.420Z,10.13
2022-08-17T16:28:35.766Z,11.10
2022-08-17T16:31:05.795Z,11.45
2022-08-17T16:33:37.297Z,9.57
2022-08-17T16:36:07.986Z,11.23
2022-08-17T16:38:36.633Z,10.57
2022-08-17T16:41:04.923Z,10.98
2022-08-17T16:43:33.103Z,11.83
2022-08-17T16:46:01.655Z,11.17
2022-08-17T16:48:30.534Z,11.32
2022-08-17T16:51:04.687Z,9.45
2022-08-17T16:53:34.052Z,9.50
2022-08-17T16:56:01.973Z,9.30
2022-08-17T16:58:30.070Z,9.70
2022-08-17T17:00:59.259Z,8.67
2022-08-17T17:03:29.284Z,9.07
2022-08-17T17:06:09.622Z,9.60
2022-08-17T17:08:44.882Z,9.93
2022-08-17T17:11:16.288Z,9.23
2022-08-17T17:13:49.271Z,9.97
2022-08-17T17:16:21.571Z,7.90
2022-08-17T17:19:01.579Z,7.70
2022-08-17T17:21:38.771Z,8.27
2022-08-17T17:24:16.069Z,6.90
2022-08-17T17:27:07.250Z,7.30
2022-08-17T17:29:53.413Z,7.23
2022-08-17T17:32:28.959Z,6.93
2022-08-17T17:35:04.885Z,6.80
2022-08-17T17:37:36.237Z,7.00
2022-08-17T17:40:09.476Z,6.83
2022-08-17T17:42:41.489Z,6.60
2022-08-17T17:45:17.800Z,7.43
2022-08-17T17:47:46.344Z,6.60
2022-08-17T17:50:14.568Z,5.80
2022-08-17T17:52:51.791Z,6.03
2022-08-17T17:55:45.610Z,5.67
2022-08-17T17:58:26.301Z,5.60
2022-08-17T18:01:07.233Z,5.83
2022-08-17T18:04:00.234Z,5.07
2022-08-17T18:06:41.390Z,4.73
2022-08-17T18:09:23.129Z,5.43
2022-08-17T18:12:06.607Z,4.87
2022-08-17T18:14:50.877Z,4.80
2022-08-17T18:17:19.672Z,5.27
2022-08-17T18:19:48.398Z,5.07
2022-08-17T18:22:19.314Z,4.73
2022-08-17T18:24:49.542Z,4.63
2022-08-17T18:27:24.795Z,4.90
2022-08-17T18:29:54.065Z,3.63
2022-08-17T18:32:43.562Z,4.90
2022-08-17T18:35:30.443Z,4.57
2022-08-17T18:38:20.387Z,5.20
2022-08-17T18:41:02.999Z,4.37
2022-08-17T18:43:44.511Z,4.50
2022-08-17T18:46:29.728Z,4.90
2022-08-17T18:49:00.002Z,4.63
2022-08-17T18:51:42.106Z,4.63
2022-08-17T18:54:17.408Z,4.90
2022-08-17T18:56:50.690Z,4.77
2022-08-17T18:59:30.152Z,4.47
2022-08-17T19:02:38.756Z,4.90
2022-08-17T19:05:14.156Z,5.07
2022-08-17T19:07:44.240Z,4.27
2022-08-17T19:10:22.156Z,5.00
2022-08-17T19:13:00.675Z,4.40
2022-08-17T19:15:35.641Z,4.33
2022-08-17T19:18:06.727Z,4.80
2022-08-17T19:20:38.572Z,4.33
2022-08-17T19:23:25.104Z,4.60
2022-08-17T19:25:55.322Z,4.40
2022-08-17T19:28:28.894Z,4.60
2022-08-17T19:30:59.612Z,4.87
2022-08-17T19:33:27.840Z,4.37
2022-08-17T19:36:03.801Z,4.60
2022-08-17T19:38:45.714Z,5.03
2022-08-17T19:41:21.085Z,4.37
2022-08-17T19:44:03.426Z,5.40
2022-08-17T19:46:43.052Z,4.67
2022-08-17T19:49:33.225Z,4.83
2022-08-17T19:52:22.237Z,5.90
2022-08-17T19:54:57.460Z,5.53
2022-08-17T19:57:35.144Z,4.93
2022-08-17T20:00:10.378Z,6.20
2022-08-17T20:02:46.991Z,5.97
2022-08-17T20:05:18.173Z,5.37
2022-08-17T20:07:53.413Z,5.57
2022-08-17T20:10:29.427Z,5.70
2022-08-17T20:13:01.505Z,6.47
2022-08-17T20:15:32.357Z,5.50
2022-08-17T20:18:06.605Z,5.57
2022-08-17T20:20:42.642Z,7.53
2022-08-17T20:23:29.790Z,6.43
2022-08-17T20:26:06.638Z,8.07
2022-08-17T20:28:38.776Z,7.73
2022-08-17T20:31:42.672Z,9.10
2022-08-17T20:34:36.964Z,8.67
2022-08-17T20:37:08.675Z,8.10
2022-08-17T20:39:40.488Z,8.13
2022-08-17T20:42:31.922Z,7.80
2022-08-17T20:45:04.625Z,7.77
2022-08-17T20:47:35.397Z,7.67
2022-08-17T20:50:09.362Z,7.83
2022-08-17T20:52:47.821Z,7.27
2022-08-17T20:55:55.697Z,8.03
2022-08-17T20:58:47.128Z,8.30
2022-08-17T21:01:34.693Z,7.77
2022-08-17T21:04:09.015Z,7.87
2022-08-17T21:07:17.385Z,8.10
2022-08-17T21:09:46.295Z,8.63
2022-08-17T21:12:42.071Z,8.47
2022-08-17T21:15:28.424Z,7.67
2022-08-17T21:18:06.545Z,8.40
2022-08-17T21:20:44.015Z,8.17
2022-08-17T21:23:34.276Z,8.77
2022-08-17T21:26:25.549Z,9.50
2022-08-17T21:29:30.172Z,9.43
2022-08-17T21:32:24.199Z,9.57
2022-08-17T21:35:25.131Z,9.73
2022-08-17T21:37:58.182Z,10.53
2022-08-17T21:40:29.712Z,9.57
2022-08-17T21:43:02.909Z,11.03
2022-08-17T21:45:35.409Z,10.03
2022-08-17T21:48:14.908Z,9.77
2022-08-17T21:50:45.992Z,10.43
2022-08-17T21:53:25.406Z,10.67
2022-08-17T21:55:56.288Z,9.03
2022-08-17T21:58:31.448Z,9.50
2022-08-17T22:01:28.054Z,9.67
2022-08-17T22:04:00.933Z,9.57
2022-08-17T22:06:34.172Z,10.20
2022-08-17T22:09:14.643Z,10.20
2022-08-17T22:11:54.020Z,10.20
2022-08-17T22:14:26.306Z,9.17
2022-08-17T22:17:14.569Z,9.57
2022-08-17T22:19:44.719Z,10.83
2022-08-17T22:22:26.325Z,11.00
2022-08-17T22:24:58.445Z,10.37
2022-08-17T22:27:56.600Z,12.03
2022-08-17T22:30:32.277Z,11.90
2022-08-17T22:33:01.488Z,11.57
2022-08-17T22:35:40.486Z,11.80
2022-08-17T22:38:33.935Z,11.30
2022-08-17T22:41:35.070Z,12.17
2022-08-17T22:44:14.980Z,12.80
2022-08-17T22:47:10.741Z,11.77
2022-08-17T22:49:53.976Z,11.80
2022-08-17T22:52:34.778Z,12.03
2022-08-17T22:55:24.558Z,11.97
2022-08-17T22:58:10.479Z,12.27
2022-08-17T23:00:42.937Z,12.50
2022-08-17T23:03:19.139Z,12.37
2022-08-17T23:05:50.743Z,11.30
2022-08-17T23:08:21.254Z,10.83
2022-08-17T23:10:49.631Z,10.30
2022-08-17T23:13:17.567Z,11.57
2022-08-17T23:15:48.053Z,10.83
2022-08-17T23:18:17.471Z,11.90
2022-08-17T23:20:45.798Z,10.07
2022-08-17T23:23:15.304Z,9.93
2022-08-17T23:25:46.239Z,10.40
2022-08-17T23:28:14.328Z,10.93
2022-08-17T23:30:46.531Z,11.83
2022-08-17T23:33:19.647Z,11.57
2022-08-17T23:35:47.454Z,13.63
2022-08-17T23:38:15.757Z,13.47
2022-08-17T23:40:43.658Z,12.60
2022-08-17T23:43:24.471Z,12.80
2022-08-17T23:45:57.559Z,10.20
2022-08-17T23:48:32.548Z,11.97
2022-08-17T23:51:08.905Z,13.47
2022-08-17T23:53:38.177Z,13.37
2022-08-17T23:56:09.447Z,13.43
2022-08-17T23:58:38.706Z,12.50
